Terminal Aerodrome Forecast
Issued by NWS

Current Version | Previous Version | Text Only | Print | Product List | Glossary On
Versions: 1 2 3 4 5 6 7 8 9 10 11 12 13 14 15 16 17 18 19 20 21 22 23 24 25
640
FTUS46 KPDT 201837 AAA
TAFBDN
TAF AMD
KBDN 201837Z 2019/2118 21030G46KT P6SM FEW070 SCT110
     FM202200 22022G32KT P6SM FEW080 FEW120
     FM210000 22010G18KT P6SM SCT060 SCT180
     FM210200 21007KT P6SM BKN060
     FM210500 VRB05KT P6SM BKN035 OVC050
     FM211000 21005KT 4SM -SNRA OVC011=

USA.gov is the U.S. government's official web portal to all federal, state and local government web resources and services.